Egg Harbor Township, New Jersey
Current Conditions -  °F | °C
As of 8:54 AM on Sunday 25 Jan 2015 (Local Time) from KACY Reporting Station
Broken Clouds Broken Clouds  
Wind Chill: 31°   Ceiling: 6000
Heat Index: 38°   Visibility: 10mi
Dew Point: 29°   Wind: 9mph
Humidity: 70%   Direction: 250°WSW
Pressure: 29.8"   Gusts: NA
Location:  39.52°N, 74.64°W
Report Text: KACY 251354Z 25008KT 10SM BKN060 03/M02 A2980 RMK AO2 SLP092 T00331017
Loading
Personal Weather Stations






























Interactive Weather Map New forecast layout! Learn more

10-Day Weather Forecast

Advertisements
Track Severe Weather on mobile